createdAt,value
2022-08-25T00:00:55.019Z,83
2022-08-25T00:02:55.801Z,83
2022-08-25T00:04:54.550Z,83
2022-08-25T00:06:59.531Z,83
2022-08-25T00:08:58.258Z,83
2022-08-25T00:11:00.196Z,83
2022-08-25T00:12:54.544Z,83
2022-08-25T00:16:57.973Z,84
2022-08-25T00:18:58.314Z,84
2022-08-25T00:20:54.533Z,84
2022-08-25T00:23:02.937Z,83
2022-08-25T00:26:54.403Z,84
2022-08-25T00:28:57.030Z,83
2022-08-25T00:31:01.216Z,83
2022-08-25T00:32:55.208Z,83
2022-08-25T00:34:54.908Z,84
2022-08-25T00:37:01.818Z,84
2022-08-25T00:38:54.647Z,84
2022-08-25T00:40:54.591Z,84
2022-08-25T00:42:54.608Z,84
2022-08-25T00:46:54.610Z,84
2022-08-25T00:48:55.550Z,84
2022-08-25T00:50:54.714Z,84
2022-08-25T00:52:54.719Z,85
2022-08-25T00:54:56.343Z,85
2022-08-25T00:56:58.423Z,85
2022-08-25T00:59:01.746Z,85
2022-08-25T01:02:56.489Z,85
2022-08-25T01:04:54.931Z,84
2022-08-25T01:06:54.604Z,85
2022-08-25T01:08:58.235Z,85
2022-08-25T01:10:54.617Z,84
2022-08-25T01:14:53.048Z,84
2022-08-25T01:16:54.720Z,84
2022-08-25T01:18:58.215Z,84
2022-08-25T01:20:59.849Z,84
2022-08-25T01:22:54.949Z,84
2022-08-25T01:24:54.806Z,84
2022-08-25T01:26:54.653Z,84
2022-08-25T01:28:54.619Z,83
2022-08-25T01:30:54.768Z,83
2022-08-25T01:34:54.605Z,84
2022-08-25T01:38:54.661Z,84
2022-08-25T01:40:54.527Z,84
2022-08-25T01:43:01.706Z,84
2022-08-25T01:44:54.719Z,84
2022-08-25T01:46:54.873Z,84
2022-08-25T01:48:54.632Z,84
2022-08-25T01:50:54.678Z,85
2022-08-25T01:52:58.271Z,85
2022-08-25T01:54:58.975Z,85
2022-08-25T01:58:57.737Z,85
2022-08-25T02:00:54.915Z,85
2022-08-25T02:02:55.569Z,85
2022-08-25T02:04:54.624Z,85
2022-08-25T02:06:54.910Z,85
2022-08-25T02:09:01.531Z,86
2022-08-25T02:10:54.630Z,86
2022-08-25T02:12:54.716Z,86
2022-08-25T02:14:58.412Z,86
2022-08-25T02:22:56.598Z,86
2022-08-25T02:24:54.624Z,86
2022-08-25T02:26:54.831Z,86
2022-08-25T02:28:54.623Z,86
2022-08-25T02:31:00.166Z,86
2022-08-25T02:32:56.334Z,86
2022-08-25T02:34:54.629Z,86
2022-08-25T02:36:54.633Z,86
2022-08-25T02:38:53.302Z,86
2022-08-25T02:40:54.699Z,86
2022-08-25T02:42:54.630Z,86
2022-08-25T02:46:54.950Z,86
2022-08-25T02:49:04.869Z,86
2022-08-25T02:50:54.623Z,86
2022-08-25T02:52:54.632Z,87
2022-08-25T02:54:56.342Z,87
2022-08-25T02:56:54.932Z,87
2022-08-25T02:58:54.624Z,86
2022-08-25T03:00:54.843Z,86
2022-08-25T03:02:54.660Z,87
2022-08-25T03:06:55.271Z,87
2022-08-25T03:09:01.764Z,87
2022-08-25T03:10:54.623Z,87
2022-08-25T03:12:55.215Z,87
2022-08-25T03:14:54.626Z,87
2022-08-25T03:16:54.763Z,87
2022-08-25T03:18:54.641Z,88
2022-08-25T03:20:58.443Z,87
2022-08-25T03:22:54.731Z,87
2022-08-25T03:24:58.204Z,87
2022-08-25T03:26:54.883Z,87
2022-08-25T03:28:57.870Z,87
2022-08-25T03:31:01.666Z,87
2022-08-25T03:32:54.680Z,87
2022-08-25T03:34:54.713Z,87
2022-08-25T03:36:55.026Z,88
2022-08-25T03:38:55.125Z,88
2022-08-25T03:40:55.065Z,88
2022-08-25T03:44:54.677Z,88
2022-08-25T03:46:54.664Z,88
2022-08-25T03:48:54.645Z,88
2022-08-25T03:50:54.912Z,88
2022-08-25T03:52:54.951Z,87
2022-08-25T03:56:54.876Z,87
2022-08-25T03:58:54.610Z,88
2022-08-25T04:00:54.651Z,87
2022-08-25T04:02:54.685Z,87
2022-08-25T04:04:54.771Z,87
2022-08-25T04:06:55.679Z,87
2022-08-25T04:08:54.673Z,87
2022-08-25T04:10:51.852Z,86
2022-08-25T04:12:54.650Z,86
2022-08-25T04:14:54.728Z,87
2022-08-25T04:16:54.696Z,87
2022-08-25T04:18:51.951Z,87
2022-08-25T04:20:54.659Z,87
2022-08-25T04:22:54.694Z,87
2022-08-25T04:24:54.658Z,87
2022-08-25T04:28:54.633Z,86
2022-08-25T04:30:57.798Z,86
2022-08-25T04:32:54.782Z,86
2022-08-25T04:34:57.598Z,86
2022-08-25T04:36:54.714Z,86
2022-08-25T04:40:59.625Z,86
2022-08-25T04:42:58.276Z,86
2022-08-25T04:44:54.705Z,86
2022-08-25T04:46:54.659Z,87
2022-08-25T04:48:54.668Z,86
2022-08-25T04:50:54.737Z,86
2022-08-25T04:52:54.610Z,86
2022-08-25T04:54:56.318Z,86
2022-08-25T04:56:58.945Z,86
2022-08-25T04:58:54.687Z,87
2022-08-25T05:00:54.697Z,86
2022-08-25T05:02:54.740Z,86
2022-08-25T05:04:54.878Z,86
2022-08-25T05:08:54.732Z,86
2022-08-25T05:12:54.448Z,86
2022-08-25T05:16:54.950Z,86
2022-08-25T05:18:54.939Z,86
2022-08-25T05:20:54.656Z,86
2022-08-25T05:22:54.648Z,85
2022-08-25T05:24:55.322Z,85
2022-08-25T05:26:54.748Z,85
2022-08-25T05:29:01.538Z,85
2022-08-25T05:30:54.655Z,85
2022-08-25T05:32:54.719Z,84
2022-08-25T05:34:55.380Z,85
2022-08-25T05:36:54.717Z,84
2022-08-25T05:38:59.805Z,85
2022-08-25T05:40:54.621Z,85
2022-08-25T05:42:58.384Z,84
2022-08-25T05:44:57.838Z,84
2022-08-25T05:46:54.673Z,84
2022-08-25T05:48:55.225Z,84
2022-08-25T05:50:54.680Z,84
2022-08-25T05:52:56.296Z,84
2022-08-25T05:54:54.691Z,84
2022-08-25T05:56:54.743Z,84
2022-08-25T05:58:54.649Z,84
2022-08-25T06:00:54.777Z,84
2022-08-25T06:02:58.393Z,84
2022-08-25T06:04:59.241Z,84
2022-08-25T06:06:57.848Z,84
2022-08-25T06:08:54.665Z,83
2022-08-25T06:10:54.695Z,78
2022-08-25T06:12:54.699Z,75
2022-08-25T06:16:54.662Z,74
2022-08-25T06:18:54.634Z,74
2022-08-25T06:22:54.648Z,73
2022-08-25T06:24:54.688Z,72
2022-08-25T06:26:54.700Z,73
2022-08-25T06:28:54.673Z,73
2022-08-25T06:30:58.083Z,73
2022-08-25T06:32:54.670Z,73
2022-08-25T06:34:54.736Z,73
2022-08-25T06:36:54.748Z,73
2022-08-25T06:38:55.079Z,73
2022-08-25T06:41:01.797Z,73
2022-08-25T06:42:54.712Z,72
2022-08-25T06:44:56.302Z,72
2022-08-25T06:47:01.876Z,73
2022-08-25T06:48:54.617Z,73
2022-08-25T06:50:54.690Z,73
2022-08-25T06:52:58.260Z,73
2022-08-25T06:54:54.666Z,73
2022-08-25T06:58:54.707Z,72
2022-08-25T07:00:54.717Z,72
2022-08-25T07:02:58.304Z,72
2022-08-25T07:04:54.695Z,72
2022-08-25T07:06:54.695Z,72
2022-08-25T07:09:01.501Z,72
2022-08-25T07:10:54.658Z,72
2022-08-25T07:12:54.789Z,72
2022-08-25T07:15:10.304Z,71
2022-08-25T07:16:54.697Z,71
2022-08-25T07:18:54.655Z,72
2022-08-25T07:20:54.771Z,72
2022-08-25T07:24:58.148Z,72
2022-08-25T07:26:58.332Z,71
2022-08-25T07:28:54.720Z,72
2022-08-25T07:31:01.472Z,72
2022-08-25T07:32:55.277Z,72
2022-08-25T07:34:54.524Z,72
2022-08-25T07:36:55.013Z,72
2022-08-25T07:38:54.713Z,72
2022-08-25T07:40:57.109Z,71
2022-08-25T07:42:54.851Z,72
2022-08-25T07:44:58.259Z,72
2022-08-25T07:46:54.709Z,72
2022-08-25T07:48:58.392Z,72
2022-08-25T07:51:01.077Z,71
2022-08-25T07:52:55.345Z,72
2022-08-25T07:54:54.638Z,72
2022-08-25T07:56:58.272Z,72
2022-08-25T07:58:54.699Z,72
2022-08-25T08:00:55.191Z,72
2022-08-25T08:02:54.859Z,72
2022-08-25T08:04:54.735Z,72
2022-08-25T08:06:58.940Z,72
2022-08-25T08:08:54.912Z,71
2022-08-25T08:11:03.490Z,70
2022-08-25T08:13:06.574Z,71
2022-08-25T08:14:56.375Z,72
2022-08-25T08:16:54.700Z,71
2022-08-25T08:18:54.650Z,71
2022-08-25T08:20:54.731Z,71
2022-08-25T08:22:56.393Z,71
2022-08-25T08:24:57.983Z,71
2022-08-25T08:28:58.330Z,70
2022-08-25T08:30:58.408Z,71
2022-08-25T08:33:09.942Z,70
2022-08-25T08:34:52.036Z,72
2022-08-25T08:36:55.108Z,71
2022-08-25T08:38:54.754Z,71
2022-08-25T08:40:54.706Z,70
2022-08-25T08:42:58.319Z,70
2022-08-25T08:46:54.670Z,71
2022-08-25T08:49:02.884Z,71
2022-08-25T08:50:59.438Z,70
2022-08-25T08:52:54.657Z,70
2022-08-25T08:54:58.379Z,69
2022-08-25T08:56:54.678Z,70
2022-08-25T09:00:54.671Z,70
2022-08-25T09:02:54.697Z,69
2022-08-25T09:04:59.399Z,69
2022-08-25T09:08:54.748Z,69
2022-08-25T09:10:55.102Z,69
2022-08-25T09:14:58.414Z,69
2022-08-25T09:16:59.889Z,69
2022-08-25T09:19:01.553Z,69
2022-08-25T09:20:58.334Z,69
2022-08-25T09:22:54.655Z,68
2022-08-25T09:24:54.691Z,67
2022-08-25T09:26:54.795Z,67
2022-08-25T09:28:54.707Z,66
2022-08-25T09:30:54.756Z,67
2022-08-25T09:32:54.716Z,67
2022-08-25T09:34:57.800Z,67
2022-08-25T09:36:58.315Z,67
2022-08-25T09:38:54.778Z,67
2022-08-25T09:40:54.819Z,68
2022-08-25T09:42:57.763Z,67
2022-08-25T09:44:54.768Z,66
2022-08-25T09:46:54.708Z,66
2022-08-25T09:48:56.195Z,66
2022-08-25T09:50:54.707Z,66
2022-08-25T09:52:57.973Z,67
2022-08-25T09:55:01.229Z,66
2022-08-25T09:57:01.800Z,66
2022-08-25T09:58:54.716Z,66
2022-08-25T10:00:54.939Z,66
2022-08-25T10:02:54.691Z,66
2022-08-25T10:04:54.711Z,66
2022-08-25T10:07:04.922Z,65
2022-08-25T10:08:58.286Z,66
2022-08-25T10:10:54.706Z,65
2022-08-25T10:14:58.336Z,65
2022-08-25T10:16:54.687Z,66
2022-08-25T10:20:58.157Z,65
2022-08-25T10:22:54.804Z,66
2022-08-25T10:26:54.723Z,66
2022-08-25T10:28:54.710Z,65
2022-08-25T10:30:54.712Z,65
2022-08-25T10:32:54.752Z,65
2022-08-25T10:36:56.062Z,66
2022-08-25T10:38:54.721Z,65
2022-08-25T10:40:54.698Z,65
2022-08-25T10:42:54.710Z,65
2022-08-25T10:45:02.728Z,65
2022-08-25T10:46:58.336Z,65
2022-08-25T10:48:54.694Z,65
2022-08-25T10:50:52.053Z,64
2022-08-25T10:54:58.213Z,64
2022-08-25T10:56:56.564Z,64
2022-08-25T10:58:58.306Z,65
2022-08-25T11:00:54.899Z,64
2022-08-25T11:02:57.684Z,64
2022-08-25T11:04:58.382Z,64
2022-08-25T11:06:54.879Z,64
2022-08-25T11:08:54.684Z,64
2022-08-25T11:10:54.675Z,64
2022-08-25T11:13:01.853Z,64
2022-08-25T11:14:54.686Z,64
2022-08-25T11:16:54.720Z,64
2022-08-25T11:18:54.684Z,64
2022-08-25T11:22:57.998Z,63
2022-08-25T11:24:54.945Z,64
2022-08-25T11:28:57.797Z,64
2022-08-25T11:30:57.975Z,64
2022-08-25T11:32:54.802Z,64
2022-08-25T11:34:54.975Z,64
2022-08-25T11:36:58.374Z,64
2022-08-25T11:38:54.695Z,64
2022-08-25T11:40:54.716Z,64
2022-08-25T11:42:54.696Z,65
2022-08-25T11:45:01.611Z,64
2022-08-25T11:46:54.746Z,64
2022-08-25T11:48:54.691Z,64
2022-08-25T11:50:54.759Z,64
2022-08-25T11:52:55.207Z,64
2022-08-25T11:54:54.708Z,63
2022-08-25T11:56:54.748Z,63
2022-08-25T11:58:56.368Z,64
2022-08-25T12:00:54.766Z,63
2022-08-25T12:04:54.755Z,63
2022-08-25T12:06:54.713Z,63
2022-08-25T12:08:57.933Z,62
2022-08-25T12:10:54.700Z,62
2022-08-25T12:12:54.828Z,62
2022-08-25T12:14:54.867Z,62
2022-08-25T12:16:58.362Z,63
2022-08-25T12:18:54.708Z,62
2022-08-25T12:20:55.012Z,62
2022-08-25T12:24:54.728Z,62
2022-08-25T12:28:54.776Z,62
2022-08-25T12:30:56.378Z,61
2022-08-25T12:32:58.095Z,62
2022-08-25T12:34:58.371Z,62
2022-08-25T12:36:54.654Z,61
2022-08-25T12:38:54.707Z,60
2022-08-25T12:40:54.673Z,59
2022-08-25T12:42:54.793Z,59
2022-08-25T12:45:01.602Z,60
2022-08-25T12:46:54.717Z,60
2022-08-25T12:48:55.118Z,60
2022-08-25T12:50:58.149Z,60
2022-08-25T12:53:01.067Z,60
2022-08-25T12:54:55.001Z,61
2022-08-25T12:56:54.809Z,61
2022-08-25T12:59:00.007Z,60
2022-08-25T13:01:01.900Z,60
2022-08-25T13:02:54.889Z,61
2022-08-25T13:04:54.717Z,60
2022-08-25T13:06:54.705Z,60
2022-08-25T13:08:54.749Z,61
2022-08-25T13:10:54.731Z,60
2022-08-25T13:12:54.692Z,58
2022-08-25T13:14:54.712Z,58
2022-08-25T13:18:54.689Z,60
2022-08-25T13:20:54.733Z,60
2022-08-25T13:22:57.499Z,60
2022-08-25T13:24:54.525Z,60
2022-08-25T13:26:58.370Z,61
2022-08-25T13:28:54.686Z,60
2022-08-25T13:30:54.677Z,60
2022-08-25T13:32:54.770Z,60
2022-08-25T13:34:58.231Z,62
2022-08-25T13:36:58.767Z,60
2022-08-25T13:38:51.961Z,60
2022-08-25T13:40:54.704Z,60
2022-08-25T13:42:59.037Z,61
2022-08-25T13:44:54.713Z,61
2022-08-25T13:46:54.998Z,60
2022-08-25T13:50:58.396Z,59
2022-08-25T13:52:55.307Z,59
2022-08-25T13:56:58.739Z,58
2022-08-25T13:58:54.674Z,58
2022-08-25T14:04:54.825Z,60
2022-08-25T14:06:54.750Z,60
2022-08-25T14:08:56.357Z,60
2022-08-25T14:10:57.868Z,61
2022-08-25T14:12:54.676Z,60
2022-08-25T14:14:54.791Z,61
2022-08-25T14:17:00.934Z,61
2022-08-25T14:18:54.748Z,61
2022-08-25T14:20:51.988Z,60
2022-08-25T14:22:55.004Z,61
2022-08-25T14:24:54.708Z,61
2022-08-25T14:26:54.933Z,61
2022-08-25T14:28:55.036Z,60
2022-08-25T14:30:54.712Z,60
2022-08-25T14:32:58.410Z,61
2022-08-25T14:34:54.864Z,60
2022-08-25T14:36:55.010Z,61
2022-08-25T14:38:57.991Z,61
2022-08-25T14:40:59.106Z,60
2022-08-25T14:42:54.724Z,59
2022-08-25T14:44:56.372Z,59
2022-08-25T14:46:58.354Z,59
2022-08-25T14:52:54.735Z,60
2022-08-25T14:54:58.338Z,59
2022-08-25T14:56:54.730Z,60
2022-08-25T14:58:54.675Z,60
2022-08-25T15:00:54.766Z,60
2022-08-25T15:02:54.785Z,60
2022-08-25T15:04:58.140Z,60
2022-08-25T15:06:54.724Z,59
2022-08-25T15:08:54.745Z,60
2022-08-25T15:10:54.699Z,59
2022-08-25T15:12:55.041Z,59
2022-08-25T15:14:54.788Z,59
2022-08-25T15:16:54.866Z,60
2022-08-25T15:18:59.988Z,60
2022-08-25T15:20:58.399Z,60
2022-08-25T15:22:54.682Z,60
2022-08-25T15:24:54.732Z,59
2022-08-25T15:26:55.115Z,59
2022-08-25T15:28:57.914Z,59
2022-08-25T15:30:58.141Z,59
2022-08-25T15:34:55.129Z,59
2022-08-25T15:36:54.747Z,59
2022-08-25T15:38:58.285Z,59
2022-08-25T15:40:54.709Z,59
2022-08-25T15:42:58.407Z,58
2022-08-25T15:44:54.841Z,58
2022-08-25T15:46:56.281Z,58
2022-08-25T15:50:55.022Z,59
2022-08-25T15:52:54.774Z,59
2022-08-25T15:55:03.509Z,60
2022-08-25T15:56:59.766Z,60
2022-08-25T15:58:54.716Z,60
2022-08-25T16:00:56.441Z,59
2022-08-25T16:02:54.773Z,60
2022-08-25T16:04:58.637Z,60
2022-08-25T16:06:55.575Z,60
2022-08-25T16:08:54.747Z,60
2022-08-25T16:12:54.722Z,61
2022-08-25T16:14:54.517Z,61
2022-08-25T16:16:58.161Z,61
2022-08-25T16:18:54.722Z,59
2022-08-25T16:20:54.750Z,60
2022-08-25T16:22:54.727Z,60
2022-08-25T16:24:54.727Z,59
2022-08-25T16:26:58.605Z,59
2022-08-25T16:28:57.934Z,59
2022-08-25T16:30:54.703Z,60
2022-08-25T16:33:01.917Z,59
2022-08-25T16:37:01.833Z,59
2022-08-25T16:38:54.794Z,59
2022-08-25T16:40:58.454Z,59
2022-08-25T16:42:54.691Z,59
2022-08-25T16:44:57.904Z,58
2022-08-25T16:47:01.943Z,59
2022-08-25T16:51:01.976Z,59
2022-08-25T16:52:54.737Z,59
2022-08-25T16:54:55.055Z,59
2022-08-25T16:57:00.912Z,59
2022-08-25T16:58:54.730Z,60
2022-08-25T17:00:54.768Z,60
2022-08-25T17:02:56.397Z,60
2022-08-25T17:04:54.737Z,60
2022-08-25T17:07:02.094Z,60
2022-08-25T17:08:54.759Z,61
2022-08-25T17:10:54.772Z,61
2022-08-25T17:12:54.749Z,61
2022-08-25T17:15:00.718Z,61
2022-08-25T17:16:54.833Z,61
2022-08-25T17:18:54.537Z,61
2022-08-25T17:20:58.183Z,61
2022-08-25T17:26:54.754Z,61
2022-08-25T17:28:52.249Z,61
2022-08-25T17:30:54.787Z,62
2022-08-25T17:32:54.709Z,62
2022-08-25T17:34:54.736Z,62
2022-08-25T17:36:54.830Z,62
2022-08-25T17:38:57.925Z,62
2022-08-25T17:40:57.663Z,62
2022-08-25T17:42:56.455Z,62
2022-08-25T17:44:58.259Z,62
2022-08-25T17:46:54.825Z,62
2022-08-25T17:48:57.765Z,62
2022-08-25T17:50:54.832Z,62
2022-08-25T17:52:57.908Z,63
2022-08-25T17:54:55.120Z,63
2022-08-25T17:56:57.985Z,64
2022-08-25T17:58:57.680Z,64
2022-08-25T18:00:57.645Z,64
2022-08-25T18:02:54.809Z,64
2022-08-25T18:04:54.862Z,64
2022-08-25T18:06:54.514Z,64
2022-08-25T18:08:59.441Z,65
2022-08-25T18:10:54.741Z,65
2022-08-25T18:12:57.652Z,65
2022-08-25T18:14:54.732Z,65
2022-08-25T18:16:54.702Z,65
2022-08-25T18:18:54.862Z,65
2022-08-25T18:20:54.805Z,66
2022-08-25T18:22:55.116Z,66
2022-08-25T18:24:54.781Z,66
2022-08-25T18:26:54.814Z,66
2022-08-25T18:30:57.838Z,66
2022-08-25T18:32:54.758Z,66
2022-08-25T18:36:54.739Z,67
2022-08-25T18:38:57.816Z,67
2022-08-25T18:40:54.910Z,67
2022-08-25T18:42:54.735Z,67
2022-08-25T18:44:58.164Z,67
2022-08-25T18:46:55.006Z,67
2022-08-25T18:50:56.442Z,68
2022-08-25T18:52:55.053Z,68
2022-08-25T18:54:54.725Z,67
2022-08-25T18:56:54.864Z,68
2022-08-25T18:58:54.794Z,68
2022-08-25T19:00:54.803Z,68
2022-08-25T19:02:54.921Z,68
2022-08-25T19:04:54.813Z,68
2022-08-25T19:06:54.832Z,68
2022-08-25T19:08:54.807Z,69
2022-08-25T19:10:55.171Z,69
2022-08-25T19:12:54.800Z,68
2022-08-25T19:16:58.003Z,69
2022-08-25T19:19:01.366Z,69
2022-08-25T19:20:57.867Z,69
2022-08-25T19:24:54.725Z,69
2022-08-25T19:26:54.938Z,69
2022-08-25T19:28:57.999Z,69
2022-08-25T19:30:54.807Z,69
2022-08-25T19:32:58.322Z,69
2022-08-25T19:34:54.805Z,69
2022-08-25T19:36:56.379Z,69
2022-08-25T19:38:54.744Z,69
2022-08-25T19:41:00.999Z,69
2022-08-25T19:42:55.082Z,70
2022-08-25T19:46:54.802Z,69
2022-08-25T19:48:54.717Z,70
2022-08-25T19:50:57.909Z,70
2022-08-25T19:52:57.964Z,70
2022-08-25T19:56:55.546Z,71
2022-08-25T19:58:55.050Z,72
2022-08-25T20:00:54.758Z,72
2022-08-25T20:02:54.628Z,72
2022-08-25T20:04:54.856Z,72
2022-08-25T20:06:55.276Z,71
2022-08-25T20:08:56.269Z,71
2022-08-25T20:10:54.849Z,72
2022-08-25T20:12:57.979Z,71
2022-08-25T20:14:54.797Z,72
2022-08-25T20:16:54.857Z,72
2022-08-25T20:19:01.116Z,72
2022-08-25T20:20:57.891Z,72
2022-08-25T20:22:57.956Z,72
2022-08-25T20:26:54.844Z,72
2022-08-25T20:28:54.799Z,72
2022-08-25T20:30:55.213Z,72
2022-08-25T20:32:54.778Z,73
2022-08-25T20:34:55.595Z,73
2022-08-25T20:36:56.442Z,73
2022-08-25T20:38:54.801Z,73
2022-08-25T20:40:58.387Z,73
2022-08-25T20:42:54.987Z,74
2022-08-25T20:44:54.782Z,74
2022-08-25T20:48:54.752Z,74
2022-08-25T20:50:57.570Z,73
2022-08-25T20:52:54.904Z,74
2022-08-25T20:54:54.813Z,74
2022-08-25T20:56:54.895Z,74
2022-08-25T20:58:54.769Z,74
2022-08-25T21:00:54.797Z,74
2022-08-25T21:02:53.323Z,74
2022-08-25T21:06:54.847Z,74
2022-08-25T21:08:54.761Z,74
2022-08-25T21:10:54.774Z,74
2022-08-25T21:12:54.811Z,74
2022-08-25T21:14:54.774Z,75
2022-08-25T21:16:54.824Z,74
2022-08-25T21:18:54.875Z,74
2022-08-25T21:20:55.163Z,74
2022-08-25T21:22:54.557Z,75
2022-08-25T21:24:54.804Z,75
2022-08-25T21:27:01.033Z,75
2022-08-25T21:28:54.749Z,74
2022-08-25T21:30:56.091Z,75
2022-08-25T21:32:54.763Z,74
2022-08-25T21:37:01.975Z,75
2022-08-25T21:40:54.781Z,75
2022-08-25T21:42:57.613Z,75
2022-08-25T21:44:54.745Z,75
2022-08-25T21:46:54.959Z,75
2022-08-25T21:48:58.019Z,75
2022-08-25T21:50:54.783Z,75
2022-08-25T21:52:54.933Z,75
2022-08-25T21:54:54.733Z,75
2022-08-25T21:56:54.838Z,75
2022-08-25T21:58:55.046Z,75
2022-08-25T22:00:54.875Z,76
2022-08-25T22:02:58.127Z,76
2022-08-25T22:04:57.736Z,76
2022-08-25T22:06:58.440Z,76
2022-08-25T22:08:54.833Z,76
2022-08-25T22:10:54.808Z,76
2022-08-25T22:12:54.825Z,76
2022-08-25T22:14:54.781Z,76
2022-08-25T22:16:55.303Z,76
2022-08-25T22:18:54.779Z,77
2022-08-25T22:20:54.761Z,76
2022-08-25T22:24:54.784Z,77
2022-08-25T22:26:54.821Z,76
2022-08-25T22:28:54.796Z,77
2022-08-25T22:30:54.894Z,77
2022-08-25T22:32:54.781Z,77
2022-08-25T22:35:01.572Z,77
2022-08-25T22:38:54.824Z,78
2022-08-25T22:40:54.785Z,78
2022-08-25T22:42:54.842Z,78
2022-08-25T22:44:54.826Z,78
2022-08-25T22:46:55.467Z,78
2022-08-25T22:48:54.805Z,78
2022-08-25T22:50:54.788Z,78
2022-08-25T22:52:54.817Z,78
2022-08-25T22:54:54.763Z,78
2022-08-25T22:56:54.920Z,78
2022-08-25T22:58:54.808Z,78
2022-08-25T23:00:54.768Z,79
2022-08-25T23:02:54.817Z,79
2022-08-25T23:04:57.766Z,79
2022-08-25T23:06:54.783Z,79
2022-08-25T23:08:54.781Z,80
2022-08-25T23:10:54.810Z,80
2022-08-25T23:12:53.313Z,80
2022-08-25T23:14:54.779Z,80
2022-08-25T23:16:54.860Z,81
2022-08-25T23:18:54.758Z,80
2022-08-25T23:20:54.577Z,81
2022-08-25T23:22:57.994Z,81
2022-08-25T23:24:54.790Z,80
2022-08-25T23:26:54.797Z,81
2022-08-25T23:28:54.805Z,81
2022-08-25T23:32:58.031Z,81
2022-08-25T23:34:54.791Z,81
2022-08-25T23:36:57.915Z,81
2022-08-25T23:38:57.993Z,81
2022-08-25T23:42:54.850Z,81
2022-08-25T23:46:55.767Z,81
2022-08-25T23:48:54.839Z,81
2022-08-25T23:50:54.860Z,81
2022-08-25T23:52:58.011Z,81
2022-08-25T23:54:55.162Z,82
2022-08-25T23:59:01.379Z,82
